Time;durP1;ratioP1;P1;durP2;ratioP2;P2;SDS_P1;SDS_P2;PMS_P1;PMS_P2;Temp;Humidity;BMP_temperature;BMP_pressure;BME280_temperature;BME280_humidity;BME280_pressure;Samples;Min_cycle;Max_cycle;Signal;HPM_P1;HPM_P2
2021/12/14 00:01:31;;;;;;;6.72;2.15;;;;;;;9.59;77.94;100872.59;5000415;28;20490;-51
2021/12/14 00:04:04;;;;;;;4.70;1.70;;;;;;;9.60;78.14;100866.56;5003435;28;20060;-49
2021/12/14 00:06:31;;;;;;;4.53;2.10;;;;;;;9.60;78.06;100872.59;5000610;28;20053;-55
2021/12/14 00:09:00;;;;;;;5.97;1.98;;;;;;;9.62;77.78;100875.22;5010377;28;20045;-51
2021/12/14 00:11:48;;;;;;;4.72;2.10;;;;;;;9.60;77.61;100864.00;5002131;28;20482;-52
2021/12/14 00:15:01;;;;;;;5.85;2.10;;;;;;;9.61;77.54;100869.19;5002622;28;20050;-52
2021/12/14 00:17:12;;;;;;;6.50;2.17;;;;;;;9.62;77.56;100867.44;4998760;28;20064;-51
2021/12/14 00:19:38;;;;;;;5.95;1.80;;;;;;;9.63;77.90;100866.63;4999695;28;20426;-54
2021/12/14 00:22:19;;;;;;;5.70;2.03;;;;;;;9.62;78.04;100859.69;5003594;28;20112;-52
2021/12/14 00:24:47;;;;;;;6.90;1.98;;;;;;;9.63;77.99;100874.38;4995647;28;20050;-54
2021/12/14 00:27:18;;;;;;;5.22;2.00;;;;;;;9.64;78.24;100878.69;4999059;28;20060;-54
2021/12/14 00:29:48;;;;;;;7.93;2.13;;;;;;;9.66;77.87;100876.13;5002621;28;20045;-51
2021/12/14 00:32:19;;;;;;;10.68;2.67;;;;;;;9.66;77.55;100882.16;4993914;28;20058;-52
2021/12/14 00:34:48;;;;;;;5.20;2.40;;;;;;;9.67;78.14;100883.91;5006510;28;20482;-53
2021/12/14 00:37:21;;;;;;;7.30;2.28;;;;;;;9.68;78.02;100879.59;5001341;28;20535;-52
2021/12/14 00:39:49;;;;;;;6.63;2.35;;;;;;;9.72;78.03;100882.25;4999658;28;20042;-55
2021/12/14 00:42:17;;;;;;;6.75;2.22;;;;;;;9.71;78.23;100885.69;4998617;28;20105;-52
2021/12/14 00:44:45;;;;;;;7.15;2.63;;;;;;;9.69;77.98;100882.22;4997778;28;20058;-52
2021/12/14 00:47:13;;;;;;;8.80;2.63;;;;;;;9.68;78.05;100880.47;4999310;28;20517;-49
2021/12/14 00:49:40;;;;;;;6.78;2.15;;;;;;;9.71;77.29;100874.47;5001607;28;20053;-53
2021/12/14 00:52:08;;;;;;;12.10;3.42;;;;;;;9.69;77.63;100866.69;4999819;28;20136;-50
2021/12/14 00:54:36;;;;;;;7.05;3.20;;;;;;;9.69;77.86;100868.44;4995427;28;20450;-54
2021/12/14 00:57:05;;;;;;;7.65;2.67;;;;;;;9.66;78.22;100871.81;4995547;28;20109;-55
2021/12/14 00:59:32;;;;;;;6.30;3.80;;;;;;;9.66;77.69;100871.81;5003992;28;20367;-53
2021/12/14 01:02:06;;;;;;;7.88;2.53;;;;;;;9.66;78.20;100866.63;5001754;28;20120;-56
2021/12/14 01:04:38;;;;;;;8.23;3.05;;;;;;;9.68;77.69;100875.31;5003272;28;20528;-53
2021/12/14 01:07:07;;;;;;;8.32;2.80;;;;;;;9.69;77.64;100866.69;4987294;28;20054;-51
2021/12/14 01:09:38;;;;;;;8.02;2.97;;;;;;;9.70;77.70;100863.28;5002637;28;20050;-53
2021/12/14 01:12:13;;;;;;;7.55;2.53;;;;;;;9.69;78.10;100855.50;5003770;28;20050;-52
2021/12/14 01:14:50;;;;;;;7.63;2.60;;;;;;;9.70;78.14;100852.06;4999813;28;20112;-51
2021/12/14 01:17:41;;;;;;;7.10;2.33;;;;;;;9.68;78.12;100859.78;5002594;28;20058;-50
2021/12/14 01:20:11;;;;;;;12.85;3.05;;;;;;;9.70;77.70;100858.09;4999695;28;20495;-53
2021/12/14 01:22:43;;;;;;;9.05;2.42;;;;;;;9.69;77.95;100864.09;4999327;28;20058;-52
2021/12/14 01:25:25;;;;;;;7.30;2.33;;;;;;;9.66;78.25;100866.63;4998131;28;20050;-51
2021/12/14 01:27:58;;;;;;;12.60;5.78;;;;;;;9.69;78.44;100866.69;4999799;28;20445;-51
2021/12/14 01:30:35;;;;;;;12.23;5.05;;;;;;;9.69;77.90;100864.09;5003993;28;20398;-55
2021/12/14 01:33:06;;;;;;;8.50;3.80;;;;;;;9.67;78.19;100860.66;4999250;28;20580;-54
2021/12/14 01:35:38;;;;;;;8.68;3.17;;;;;;;9.68;78.13;100857.19;4997421;28;20046;-49
2021/12/14 01:38:21;;;;;;;10.77;4.40;;;;;;;9.69;77.88;100855.50;5002389;28;20046;-53
2021/12/14 01:40:53;;;;;;;5.50;2.78;;;;;;;9.66;77.86;100853.72;5000175;28;20085;-52
2021/12/14 01:43:26;;;;;;;12.70;3.17;;;;;;;9.66;78.00;100856.28;4998876;28;20058;-53
2021/12/14 01:45:54;;;;;;;7.35;2.50;;;;;;;9.67;78.10;100858.06;4996560;28;20046;-54
2021/12/14 01:48:23;;;;;;;7.78;2.40;;;;;;;9.65;78.20;100857.16;5008760;28;20083;-53
2021/12/14 01:50:57;;;;;;;8.02;2.35;;;;;;;9.67;78.23;100860.66;4998203;28;20058;-51
2021/12/14 01:53:24;;;;;;;5.50;2.13;;;;;;;9.67;78.24;100862.34;4991651;28;20053;-54
2021/12/14 01:55:57;;;;;;;10.65;2.13;;;;;;;9.67;78.24;100873.56;4998523;28;20551;-52
2021/12/14 01:58:31;;;;;;;11.50;3.85;;;;;;;9.67;78.00;100863.22;4996002;28;20070;-49
2021/12/14 02:01:04;;;;;;;10.63;3.10;;;;;;;9.69;78.20;100877.03;5002069;28;20093;-54
2021/12/14 02:03:36;;;;;;;10.55;3.13;;;;;;;9.71;78.10;100875.34;4997567;28;20068;-55
2021/12/14 02:06:04;;;;;;;6.78;2.63;;;;;;;9.70;78.07;100873.63;4998244;28;20539;-54
2021/12/14 02:08:35;;;;;;;8.57;3.92;;;;;;;9.73;77.84;100873.66;5000728;28;20057;-53
2021/12/14 02:11:06;;;;;;;9.25;2.58;;;;;;;9.73;77.90;100872.78;4993779;28;20054;-54
2021/12/14 02:13:38;;;;;;;7.13;2.50;;;;;;;9.74;78.19;100880.59;5006157;28;20037;-53
2021/12/14 02:16:09;;;;;;;6.03;2.55;;;;;;;9.76;77.93;100878.88;4993637;28;20085;-53
2021/12/14 02:18:56;;;;;;;7.88;2.63;;;;;;;9.75;78.25;100871.97;4996610;28;20121;-52
2021/12/14 02:21:23;;;;;;;8.73;3.47;;;;;;;9.77;78.22;100880.59;4996836;28;20046;-53
2021/12/14 02:23:52;;;;;;;6.00;2.33;;;;;;;9.78;77.73;100871.13;4994750;28;20108;-54
2021/12/14 02:26:25;;;;;;;13.52;2.78;;;;;;;9.77;78.34;100870.25;5000035;28;20492;-49
2021/12/14 02:28:53;;;;;;;8.35;2.83;;;;;;;9.80;78.20;100876.34;4998487;28;20058;-52
2021/12/14 02:31:23;;;;;;;8.57;2.75;;;;;;;9.77;78.61;100875.44;5003121;28;20049;-53
2021/12/14 02:33:52;;;;;;;9.77;3.13;;;;;;;9.76;78.57;100876.28;4997226;28;20049;-51
2021/12/14 02:36:24;;;;;;;9.13;3.00;;;;;;;9.78;78.44;100876.31;4999061;28;20067;-52
2021/12/14 02:39:05;;;;;;;13.75;3.10;;;;;;;9.77;78.00;100885.78;4998694;28;20046;-53
2021/12/14 02:41:41;;;;;;;11.18;2.90;;;;;;;9.75;78.59;100887.47;4994760;28;20066;-53
2021/12/14 02:44:08;;;;;;;7.72;2.78;;;;;;;9.75;78.75;100892.66;5000305;28;20096;-50
2021/12/14 02:46:40;;;;;;;8.68;3.38;;;;;;;9.75;78.09;100882.31;4997663;28;20660;-50
2021/12/14 02:49:10;;;;;;;11.07;2.83;;;;;;;9.73;78.06;100889.16;4995610;28;20054;-51
2021/12/14 02:51:42;;;;;;;11.90;2.88;;;;;;;9.75;78.48;100891.78;4996192;28;20041;-54
2021/12/14 02:54:16;;;;;;;10.48;3.08;;;;;;;9.74;78.21;100890.94;4997739;28;20050;-52
2021/12/14 02:56:48;;;;;;;8.50;3.15;;;;;;;9.77;78.65;100888.34;5000190;28;20051;-51
2021/12/14 02:59:18;;;;;;;10.18;3.13;;;;;;;9.79;78.26;100890.13;4999325;28;20108;-50
2021/12/14 03:01:47;;;;;;;9.27;3.28;;;;;;;9.79;78.11;100892.72;5000993;28;20552;-51
2021/12/14 03:04:14;;;;;;;6.68;2.38;;;;;;;9.80;78.56;100889.25;4997650;28;20052;-54
2021/12/14 03:06:47;;;;;;;12.15;4.03;;;;;;;9.81;78.15;100891.88;4991129;28;20054;-50
2021/12/14 03:09:34;;;;;;;9.55;3.80;;;;;;;9.84;78.25;100896.22;4997552;28;20110;-51
2021/12/14 03:12:09;;;;;;;15.13;5.10;;;;;;;9.84;78.00;100888.47;4999883;28;20093;-51
2021/12/14 03:14:37;;;;;;;10.02;3.47;;;;;;;9.85;78.10;100896.25;4998685;28;20050;-53
2021/12/14 03:17:04;;;;;;;11.02;3.38;;;;;;;9.87;78.18;100898.84;4997233;28;20097;-50
2021/12/14 03:19:30;;;;;;;13.40;4.22;;;;;;;9.89;78.22;100904.91;4998944;28;20502;-52
2021/12/14 03:21:57;;;;;;;14.90;4.50;;;;;;;9.90;78.14;100906.66;4998122;28;20054;-52
2021/12/14 03:24:24;;;;;;;10.95;4.30;;;;;;;9.90;78.46;100901.50;5000289;28;20050;-52
2021/12/14 03:26:53;;;;;;;9.02;3.53;;;;;;;9.89;78.41;100904.91;5006687;28;20647;-52
2021/12/14 03:29:25;;;;;;;9.98;3.15;;;;;;;9.90;78.64;100901.50;5003062;28;20050;-48
2021/12/14 03:31:55;;;;;;;7.45;2.38;;;;;;;9.89;78.19;100900.63;4998469;28;20046;-52
2021/12/14 03:34:33;;;;;;;9.05;3.20;;;;;;;9.86;78.31;100900.56;4998112;28;20112;-54
2021/12/14 03:37:07;;;;;;;8.18;2.80;;;;;;;9.86;78.08;100889.38;4996662;28;20058;-53
2021/12/14 03:39:39;;;;;;;9.27;2.80;;;;;;;9.83;78.58;100891.91;5002999;28;20038;-54
2021/12/14 03:42:15;;;;;;;11.65;3.95;;;;;;;9.82;78.11;100908.25;5003309;28;20054;-54
2021/12/14 03:44:47;;;;;;;8.23;2.95;;;;;;;9.85;78.31;100897.94;5004948;28;20058;-50
2021/12/14 03:47:19;;;;;;;8.40;2.72;;;;;;;9.85;78.37;100903.13;4999861;28;20101;-51
2021/12/14 03:49:50;;;;;;;7.35;2.45;;;;;;;9.86;78.40;100904.88;4998120;28;20069;-49
2021/12/14 03:52:24;;;;;;;7.78;2.40;;;;;;;9.86;78.28;100915.25;5000933;28;20046;-52
2021/12/14 03:54:51;;;;;;;6.30;3.22;;;;;;;9.89;78.63;100910.06;5000060;28;20453;-52
2021/12/14 03:57:17;;;;;;;7.47;3.08;;;;;;;9.90;78.88;100901.50;5004038;28;20099;-52
2021/12/14 03:59:45;;;;;;;7.50;2.90;;;;;;;9.90;78.36;100906.66;5000389;28;20116;-51
2021/12/14 04:02:16;;;;;;;11.35;2.97;;;;;;;9.92;78.26;100904.94;4998387;28;20117;-49
2021/12/14 04:04:50;;;;;;;7.03;2.47;;;;;;;9.92;78.64;100915.31;4998504;28;20100;-52
2021/12/14 04:07:18;;;;;;;8.40;2.85;;;;;;;9.93;78.17;100911.84;5000935;28;20050;-55
2021/12/14 04:09:44;;;;;;;8.55;2.38;;;;;;;9.96;78.19;100914.50;5001861;28;20046;-53
2021/12/14 04:12:16;;;;;;;9.68;2.80;;;;;;;9.96;78.73;100916.22;5001942;28;20097;-53
2021/12/14 04:14:48;;;;;;;11.30;3.35;;;;;;;9.95;78.92;100915.34;4997186;28;20062;-55
2021/12/14 04:17:16;;;;;;;9.43;2.47;;;;;;;9.95;78.21;100920.53;4999620;28;20050;-51
2021/12/14 04:19:43;;;;;;;9.65;2.67;;;;;;;9.96;78.15;100911.91;5001137;28;20540;-52
2021/12/14 04:22:17;;;;;;;6.05;2.58;;;;;;;9.95;77.91;100909.28;4998035;28;20046;-54
2021/12/14 04:24:45;;;;;;;9.10;3.05;;;;;;;9.93;78.68;100911.84;4999263;28;20050;-54
2021/12/14 04:27:18;;;;;;;7.30;2.63;;;;;;;9.89;78.30;100915.25;5003214;28;20082;-55
2021/12/14 04:29:45;;;;;;;7.43;3.65;;;;;;;9.90;78.55;100917.88;4998081;28;20424;-53
2021/12/14 04:32:14;;;;;;;9.77;2.85;;;;;;;9.90;78.72;100917.03;5002300;28;20108;-53
2021/12/14 04:34:42;;;;;;;10.10;2.72;;;;;;;9.90;78.63;100919.59;4998785;28;20084;-53
2021/12/14 04:37:10;;;;;;;7.53;3.72;;;;;;;9.90;78.42;100910.09;5001818;28;20642;-54
2021/12/14 04:39:44;;;;;;;8.23;3.55;;;;;;;9.91;78.42;100913.56;5001125;28;20050;-52
2021/12/14 04:53:39;;;;;;;7.97;2.28;;;;;;;9.92;78.88;100915.31;4996261;28;20160;-50
2021/12/14 04:56:10;;;;;;;9.60;3.20;;;;;;;9.94;78.80;100913.63;4999646;28;20104;-49
2021/12/14 04:58:43;;;;;;;7.00;2.83;;;;;;;9.96;78.02;100919.69;5002497;28;20045;-55
2021/12/14 05:01:13;;;;;;;8.75;2.60;;;;;;;9.96;78.73;100916.22;4992812;28;20042;-52
2021/12/14 05:03:47;;;;;;;6.07;2.10;;;;;;;9.97;78.60;100918.81;4995850;28;20081;-55
2021/12/14 05:06:21;;;;;;;8.65;2.85;;;;;;;9.95;78.44;100924.81;5000489;28;20100;-54
2021/12/14 05:11:40;;;;;;;12.55;3.15;;;;;;;9.96;78.57;100917.09;4997972;28;20054;-52
2021/12/14 05:14:10;;;;;;;8.10;2.72;;;;;;;9.98;78.84;100915.41;4999423;28;20089;-51
2021/12/14 05:16:38;;;;;;;8.70;2.75;;;;;;;9.97;78.89;100921.41;4996984;28;20050;-52
2021/12/14 05:19:26;;;;;;;6.93;2.63;;;;;;;9.98;78.62;100918.00;5001123;28;20124;-52
2021/12/14 05:21:59;;;;;;;7.05;2.35;;;;;;;9.97;78.48;100912.78;4998034;28;20115;-52
2021/12/14 05:24:27;;;;;;;10.02;2.53;;;;;;;9.97;78.31;100916.22;4999503;28;20054;-53
2021/12/14 05:26:57;;;;;;;8.35;2.53;;;;;;;10.00;78.54;100912.84;4998765;28;20058;-52
2021/12/14 05:29:27;;;;;;;6.88;4.03;;;;;;;9.98;78.85;100914.53;4993735;28;20456;-53
2021/12/14 05:31:56;;;;;;;7.03;3.03;;;;;;;10.00;78.69;100923.19;5002690;28;20038;-54
2021/12/14 05:34:26;;;;;;;7.13;2.75;;;;;;;9.99;78.44;100919.72;4999361;28;20182;-54
2021/12/14 05:36:53;;;;;;;14.40;4.40;;;;;;;10.01;78.71;100923.22;5003677;28;20049;-53
2021/12/14 05:44:54;;;;;;;8.38;2.28;;;;;;;10.03;78.19;100926.69;4986456;28;20100;-55
2021/12/14 05:47:20;;;;;;;8.75;3.10;;;;;;;10.05;79.17;100920.63;4998729;28;20057;-50
2021/12/14 05:49:49;;;;;;;8.15;2.70;;;;;;;10.06;78.85;100925.84;5002441;28;20041;-55
2021/12/14 05:52:20;;;;;;;8.13;2.72;;;;;;;10.08;78.57;100915.50;4997908;28;20046;-50
2021/12/14 05:54:48;;;;;;;6.30;2.60;;;;;;;10.07;78.42;100913.78;5006295;28;20116;-54
2021/12/14 05:57:20;;;;;;;8.10;2.67;;;;;;;10.05;78.81;100918.94;4996638;28;20050;-54
2021/12/14 05:59:47;;;;;;;4.50;2.58;;;;;;;10.03;78.89;100916.31;4994434;28;20054;-52
2021/12/14 06:02:14;;;;;;;6.38;2.70;;;;;;;10.03;78.54;100929.25;5003212;28;20096;-52
2021/12/14 06:04:45;;;;;;;6.88;1.98;;;;;;;10.05;78.30;100926.69;4998647;28;20066;-52
2021/12/14 06:07:13;;;;;;;5.78;2.65;;;;;;;10.05;78.66;100931.88;4999746;28;20058;-51
2021/12/14 06:09:45;;;;;;;4.32;2.25;;;;;;;10.08;78.52;100941.41;5000628;28;20061;-53
2021/12/14 06:12:19;;;;;;;7.38;2.80;;;;;;;10.07;79.01;100945.72;4995418;28;20049;-53
2021/12/14 06:14:52;;;;;;;9.15;2.85;;;;;;;10.09;78.39;100946.59;4999266;28;20126;-53
2021/12/14 06:17:22;;;;;;;7.57;2.60;;;;;;;10.11;78.38;100949.22;4999248;28;20081;-51
2021/12/14 06:19:54;;;;;;;6.68;2.63;;;;;;;10.11;78.53;100946.63;4998741;28;20062;-54
2021/12/14 06:22:23;;;;;;;7.40;3.45;;;;;;;10.13;78.82;100953.56;5003630;28;20422;-54
2021/12/14 06:24:54;;;;;;;6.13;2.80;;;;;;;10.13;78.34;100960.44;4994770;28;20050;-53
2021/12/14 06:27:24;;;;;;;4.88;2.50;;;;;;;10.14;78.39;100959.63;4998026;28;20062;-52
2021/12/14 06:29:55;;;;;;;8.55;2.67;;;;;;;10.13;78.50;100960.44;4997373;28;20132;-50
2021/12/14 06:32:29;;;;;;;8.52;2.05;;;;;;;10.12;78.54;100959.59;4998150;28;20482;-54
2021/12/14 06:35:01;;;;;;;8.00;2.67;;;;;;;10.13;79.06;100960.44;4997764;28;20069;-52
2021/12/14 06:37:54;;;;;;;7.88;2.70;;;;;;;10.12;78.83;100966.47;5002377;28;20497;-51
2021/12/14 06:40:26;;;;;;;6.70;2.40;;;;;;;10.14;79.03;100962.19;5000276;28;20561;-55
2021/12/14 06:42:56;;;;;;;7.72;3.35;;;;;;;10.14;78.95;100962.19;5000320;28;20049;-54
2021/12/14 06:45:28;;;;;;;5.47;2.50;;;;;;;10.15;79.17;100967.41;5000525;28;20046;-54
2021/12/14 06:48:03;;;;;;;5.45;2.67;;;;;;;10.15;78.55;100969.13;4997041;28;20450;-53
2021/12/14 06:50:36;;;;;;;8.68;2.80;;;;;;;10.16;78.64;100969.13;4999094;28;20050;-51
2021/12/14 06:53:07;;;;;;;6.43;1.88;;;;;;;10.17;78.36;100970.03;4995410;28;20049;-50
2021/12/14 06:55:36;;;;;;;10.20;2.33;;;;;;;10.14;78.98;100967.38;4996292;28;20128;-52
2021/12/14 06:58:09;;;;;;;6.25;2.47;;;;;;;10.17;78.76;100964.84;5004925;28;20053;-52
2021/12/14 07:00:38;;;;;;;8.10;2.55;;;;;;;10.21;78.68;100973.50;4999416;28;20046;-53
2021/12/14 07:03:05;;;;;;;5.90;2.70;;;;;;;10.21;79.11;100974.38;5006712;28;20056;-52
2021/12/14 07:05:32;;;;;;;6.60;2.88;;;;;;;10.22;78.20;100975.25;5007637;28;20053;-55
2021/12/14 07:08:06;;;;;;;7.97;2.40;;;;;;;10.24;78.16;100976.16;5005043;28;20057;-49
2021/12/14 07:10:39;;;;;;;10.63;2.92;;;;;;;10.23;78.21;100983.03;5005706;28;20139;-52
2021/12/14 07:13:12;;;;;;;9.63;2.33;;;;;;;10.24;78.33;100983.91;4993721;28;20046;-54
2021/12/14 07:15:39;;;;;;;8.10;2.20;;;;;;;10.25;78.91;100980.47;4997734;28;20690;-51
2021/12/14 07:18:07;;;;;;;6.45;3.45;;;;;;;10.25;78.05;100976.16;5000542;28;20056;-50
2021/12/14 07:20:44;;;;;;;31.23;12.02;;;;;;;10.23;78.26;100977.84;5000117;28;20050;-51
2021/12/14 07:23:23;;;;;;;9.73;4.43;;;;;;;10.23;78.58;100977.00;4995866;28;20840;-53
2021/12/14 07:26:10;;;;;;;16.67;5.20;;;;;;;10.23;78.69;100983.03;4998115;28;20520;-54
2021/12/14 07:28:41;;;;;;;8.13;2.80;;;;;;;10.27;78.18;100984.81;5002716;28;20058;-52
2021/12/14 07:31:15;;;;;;;7.28;2.53;;;;;;;10.27;77.98;100990.00;4997566;28;20046;-52
2021/12/14 07:33:48;;;;;;;6.78;2.03;;;;;;;10.27;77.98;100990.00;5003474;28;20062;-54
2021/12/14 07:36:26;;;;;;;9.60;2.80;;;;;;;10.27;78.13;100994.31;4996832;28;20046;-53
2021/12/14 07:38:58;;;;;;;12.48;2.78;;;;;;;10.28;78.27;100985.69;4997004;28;20109;-53
2021/12/14 07:41:30;;;;;;;12.90;3.53;;;;;;;10.28;78.78;100994.34;5000645;28;20413;-51
2021/12/14 07:44:05;;;;;;;8.75;3.08;;;;;;;10.29;78.56;100993.47;4996149;28;20058;-53
2021/12/14 07:46:42;;;;;;;8.88;4.22;;;;;;;10.31;78.02;100995.22;5001446;28;20579;-53
2021/12/14 07:49:40;;;;;;;6.22;2.65;;;;;;;10.26;78.17;101003.78;4998984;28;20097;-52
2021/12/14 07:52:16;;;;;;;7.30;2.38;;;;;;;10.27;78.23;101005.53;4990044;28;20046;-53
2021/12/14 07:54:47;;;;;;;6.05;2.50;;;;;;;10.28;77.92;101017.66;4998090;28;20058;-49
2021/12/14 07:57:26;;;;;;;9.48;3.10;;;;;;;10.26;78.69;101018.44;4998440;28;20521;-54
2021/12/14 07:59:59;;;;;;;7.93;3.03;;;;;;;10.28;78.50;101014.16;4993012;28;20101;-51
2021/12/14 08:02:33;;;;;;;12.40;4.20;;;;;;;10.27;78.12;101015.88;5000767;28;20049;-54
2021/12/14 08:05:23;;;;;;;9.30;2.63;;;;;;;10.26;78.22;101026.22;5001525;28;20136;-54
2021/12/14 08:08:08;;;;;;;8.30;2.70;;;;;;;10.26;77.97;101028.81;4979546;28;20083;-53
2021/12/14 08:10:40;;;;;;;8.15;2.55;;;;;;;10.27;77.92;101033.16;4977341;28;20112;-55
2021/12/14 08:13:13;;;;;;;6.38;2.42;;;;;;;10.27;77.87;101034.00;4979714;28;20058;-54
2021/12/14 08:15:53;;;;;;;6.93;2.35;;;;;;;10.25;78.21;101037.44;4977103;28;20059;-49
2021/12/14 08:18:28;;;;;;;8.02;2.70;;;;;;;10.27;77.63;101040.91;4985852;28;20848;-51
2021/12/14 08:21:03;;;;;;;10.50;3.92;;;;;;;10.28;78.37;101042.66;4975304;28;21131;-50
2021/12/14 08:23:35;;;;;;;8.48;2.63;;;;;;;10.29;78.11;101044.38;4978980;28;20059;-53
2021/12/14 08:26:18;;;;;;;8.52;2.28;;;;;;;10.25;77.98;101043.47;4975706;28;20112;-53
2021/12/14 08:28:49;;;;;;;15.77;4.95;;;;;;;10.29;78.11;101045.28;4975808;28;20085;-52
2021/12/14 08:31:17;;;;;;;5.78;2.55;;;;;;;10.31;78.64;101041.81;4976268;28;20042;-53
2021/12/14 08:33:53;;;;;;;13.52;3.55;;;;;;;10.29;78.61;101053.03;4979437;28;20054;-53
2021/12/14 08:36:20;;;;;;;12.40;3.28;;;;;;;10.30;78.09;101046.13;4973927;28;20046;-52
2021/12/14 08:38:47;;;;;;;13.88;4.15;;;;;;;10.32;78.63;101052.22;4978401;28;20053;-53
2021/12/14 08:41:21;;;;;;;9.93;3.10;;;;;;;10.31;78.52;101052.19;4999284;28;20050;-48
2021/12/14 08:43:50;;;;;;;10.35;3.85;;;;;;;10.31;78.08;101049.59;4997061;28;20054;-54
2021/12/14 08:46:23;;;;;;;9.82;3.13;;;;;;;10.31;78.71;101052.19;4998533;28;20049;-55
2021/12/14 08:48:54;;;;;;;6.00;2.20;;;;;;;10.32;78.21;101048.72;4995061;28;20041;-53
2021/12/14 08:51:32;;;;;;;4.97;2.00;;;;;;;10.31;78.72;101057.34;4993354;28;20057;-50
2021/12/14 08:54:06;;;;;;;4.15;2.47;;;;;;;10.32;78.36;101048.72;4996172;28;20556;-54
2021/12/14 08:56:37;;;;;;;10.85;3.38;;;;;;;10.35;77.88;101064.31;4991350;28;20596;-53
2021/12/14 08:59:05;;;;;;;6.45;2.40;;;;;;;10.34;78.64;101058.25;4998048;28;20474;-50
2021/12/14 09:01:34;;;;;;;8.20;2.50;;;;;;;10.37;78.00;101057.47;4998519;28;20077;-55
2021/12/14 09:04:08;;;;;;;10.05;2.65;;;;;;;10.36;77.98;101058.28;5002741;28;20042;-55
2021/12/14 09:06:38;;;;;;;8.63;2.67;;;;;;;10.38;78.86;101059.19;4993453;28;20050;-52
2021/12/14 09:09:10;;;;;;;11.25;3.20;;;;;;;10.39;78.50;101055.75;4999788;28;20062;-54
2021/12/14 09:11:39;;;;;;;6.88;2.72;;;;;;;10.38;78.65;101054.91;4993068;28;20050;-53
2021/12/14 09:14:09;;;;;;;7.90;2.20;;;;;;;10.40;78.83;101057.47;4999050;28;20050;-52
2021/12/14 09:16:37;;;;;;;6.85;2.22;;;;;;;10.41;78.61;101064.44;4995250;28;20050;-52
2021/12/14 09:19:18;;;;;;;13.65;3.33;;;;;;;10.40;77.91;101066.13;4992240;28;20662;-53
2021/12/14 09:21:49;;;;;;;12.48;3.25;;;;;;;10.43;78.31;101067.88;4999897;28;20053;-51
2021/12/14 09:24:20;;;;;;;9.18;2.78;;;;;;;10.44;78.19;101064.47;4992346;28;20072;-53
2021/12/14 09:26:52;;;;;;;10.50;3.00;;;;;;;10.48;78.32;101071.47;4994326;28;20082;-48
2021/12/14 09:29:22;;;;;;;8.02;2.72;;;;;;;10.49;77.90;101062.84;4996985;28;20120;-55
2021/12/14 09:31:51;;;;;;;5.88;2.15;;;;;;;10.47;78.58;101064.53;4993177;28;20142;-48
2021/12/14 09:34:21;;;;;;;6.80;2.72;;;;;;;10.49;78.87;101067.13;4995863;28;20093;-54
2021/12/14 09:36:51;;;;;;;9.63;2.42;;;;;;;10.48;78.42;101061.09;4998033;28;20046;-50
2021/12/14 09:39:25;;;;;;;7.18;3.10;;;;;;;10.51;78.65;101071.47;4992559;28;20042;-52
2021/12/14 09:41:53;;;;;;;5.70;2.63;;;;;;;10.54;78.52;101066.34;4996357;28;20049;-54
2021/12/14 09:44:24;;;;;;;9.18;2.65;;;;;;;10.56;78.04;101068.09;4998034;28;20066;-55
2021/12/14 09:46:52;;;;;;;4.95;2.25;;;;;;;10.57;78.83;101068.09;4998013;28;20077;-54
2021/12/14 09:49:19;;;;;;;8.82;3.20;;;;;;;10.62;77.92;101063.00;4992694;28;20146;-53
2021/12/14 09:51:53;;;;;;;7.15;2.83;;;;;;;10.64;78.78;101079.44;4996625;28;20091;-52
2021/12/14 09:54:23;;;;;;;11.43;3.67;;;;;;;10.67;78.39;101076.88;4995764;28;20050;-53
2021/12/14 09:56:56;;;;;;;7.68;3.35;;;;;;;10.71;78.50;101080.41;4999057;28;20080;-55
2021/12/14 09:59:23;;;;;;;4.22;1.98;;;;;;;10.70;78.83;101076.91;4996335;28;20108;-53
2021/12/14 10:01:56;;;;;;;10.25;2.67;;;;;;;10.73;78.36;101081.28;4993543;28;20065;-51
2021/12/14 10:04:29;;;;;;;5.65;2.25;;;;;;;10.75;78.87;101085.66;4994748;28;20064;-50
2021/12/14 10:06:58;;;;;;;7.18;2.65;;;;;;;10.77;77.97;101086.53;4997042;28;20050;-53
2021/12/14 10:09:29;;;;;;;7.63;2.95;;;;;;;10.78;78.42;101093.44;4995535;28;20473;-54
2021/12/14 10:12:49;;;;;;;10.52;3.05;;;;;;;10.76;78.14;101096.88;4999820;28;20058;-53
2021/12/14 10:14:53;;;;;;;6.55;2.75;;;;;;;10.78;78.41;101096.03;4999839;28;20049;-53
2021/12/14 10:17:23;;;;;;;6.60;2.50;;;;;;;10.79;79.40;101094.31;4997455;28;20050;-53
2021/12/14 10:19:50;;;;;;;8.25;2.40;;;;;;;10.83;78.03;101092.63;4993406;28;20050;-53
2021/12/14 10:22:23;;;;;;;10.77;3.53;;;;;;;10.86;79.00;101095.25;4997078;28;20048;-52
2021/12/14 10:24:56;;;;;;;9.40;3.55;;;;;;;10.90;77.77;101100.53;4998734;28;20041;-52
2021/12/14 10:27:24;;;;;;;8.05;3.17;;;;;;;10.93;78.21;101099.69;5002051;28;20050;-52
2021/12/14 10:29:54;;;;;;;7.03;3.33;;;;;;;10.97;78.46;101101.47;4993141;28;20046;-54
2021/12/14 10:32:25;;;;;;;16.73;5.05;;;;;;;11.00;78.81;101105.81;4994645;28;20050;-51
2021/12/14 10:34:56;;;;;;;9.68;4.03;;;;;;;11.03;78.12;101111.91;4995752;28;20112;-51
2021/12/14 10:37:36;;;;;;;6.65;3.40;;;;;;;11.04;79.06;101108.47;4999860;28;20112;-49
2021/12/14 10:43:13;;;;;;;5.13;2.25;;;;;;;11.09;77.81;101102.47;4995701;28;20583;-54
2021/12/14 10:45:40;;;;;;;7.18;2.72;;;;;;;11.11;78.20;101093.00;4994457;28;20058;-50
2021/12/14 10:48:08;;;;;;;10.32;3.25;;;;;;;11.14;78.13;101090.41;4997704;28;20701;-54
2021/12/14 10:50:36;;;;;;;6.05;2.17;;;;;;;11.13;77.73;101106.84;5003337;28;20549;-53
2021/12/14 10:53:06;;;;;;;6.75;2.35;;;;;;;11.17;77.85;101095.63;4997387;28;20046;-54
2021/12/14 10:55:42;;;;;;;5.82;2.95;;;;;;;11.18;78.82;101094.81;5001624;28;20501;-54
2021/12/14 10:58:11;;;;;;;6.57;3.00;;;;;;;11.22;77.65;101095.72;4994156;28;20056;-53
2021/12/14 11:00:49;;;;;;;8.10;3.35;;;;;;;11.19;78.75;101097.41;4997537;28;20115;-52
2021/12/14 11:03:22;;;;;;;8.07;2.70;;;;;;;11.23;78.70;101087.94;4999048;28;20054;-52
2021/12/14 11:05:54;;;;;;;6.43;2.22;;;;;;;11.27;77.91;101089.72;4995442;28;20049;-51
2021/12/14 11:08:44;;;;;;;6.43;3.33;;;;;;;11.31;78.18;101094.09;5003705;28;20437;-53
2021/12/14 11:11:14;;;;;;;6.43;2.20;;;;;;;11.35;78.53;101087.19;4995640;28;20057;-54
2021/12/14 11:13:47;;;;;;;4.47;2.28;;;;;;;11.35;77.59;101087.19;4994976;28;20575;-54
2021/12/14 11:16:31;;;;;;;4.65;2.22;;;;;;;11.40;77.50;101085.53;4995437;28;20104;-53
2021/12/14 11:19:03;;;;;;;5.00;2.15;;;;;;;11.44;77.79;101083.84;5001082;28;20042;-51
2021/12/14 11:21:31;;;;;;;4.47;2.05;;;;;;;11.46;77.61;101089.91;4999875;28;20879;-54
2021/12/14 11:23:58;;;;;;;4.15;2.00;;;;;;;11.46;77.40;101082.13;5002734;28;20104;-56
2021/12/14 11:26:32;;;;;;;7.10;2.17;;;;;;;11.52;78.69;101082.19;5003822;28;20054;-52
2021/12/14 11:29:15;;;;;;;4.40;2.10;;;;;;;11.56;78.68;101081.34;4997910;28;20054;-52
2021/12/14 11:31:48;;;;;;;6.07;2.17;;;;;;;11.60;78.36;101079.69;4995981;28;20058;-55
2021/12/14 11:34:27;;;;;;;9.82;2.30;;;;;;;11.62;78.04;101074.50;4993396;28;20733;-55
2021/12/14 11:37:02;;;;;;;5.10;2.30;;;;;;;11.63;76.99;101076.25;4994895;28;20064;-52
2021/12/14 11:39:35;;;;;;;5.38;2.55;;;;;;;11.66;77.38;101071.09;4995860;28;20046;-55
2021/12/14 11:42:23;;;;;;;7.20;3.47;;;;;;;11.66;77.71;101065.91;4999725;28;20145;-52
2021/12/14 11:45:04;;;;;;;4.72;2.55;;;;;;;11.70;78.08;101075.44;5003298;28;20038;-53
2021/12/14 11:47:46;;;;;;;4.03;1.73;;;;;;;11.75;77.09;101065.97;4997761;28;20054;-53
2021/12/14 11:50:35;;;;;;;5.43;2.35;;;;;;;11.72;77.12;101063.34;5003225;28;20068;-52
2021/12/14 11:53:14;;;;;;;5.40;1.70;;;;;;;11.79;77.61;101065.13;5006714;28;20050;-54
2021/12/14 11:55:48;;;;;;;5.47;2.15;;;;;;;11.82;77.74;101067.75;4996196;28;20058;-53
2021/12/14 11:58:37;;;;;;;6.13;2.60;;;;;;;11.82;77.70;101062.56;4995385;28;20053;-55
2021/12/14 12:01:22;;;;;;;;;;;;;;;11.80;78.23;101059.09;4996687;28;20065;-52
2021/12/14 12:03:59;;;;;;;5.40;2.35;;;;;;;11.89;77.39;101057.44;5003058;28;19975;-54
2021/12/14 12:06:46;;;;;;;4.10;2.30;;;;;;;11.91;77.82;101053.09;5003779;28;20084;-50
2021/12/14 12:09:33;;;;;;;5.03;2.30;;;;;;;11.92;77.57;101062.66;5005008;28;20082;-53
2021/12/14 12:12:11;;;;;;;6.13;2.20;;;;;;;11.93;76.55;101054.00;4994908;28;20539;-54
2021/12/14 12:15:18;;;;;;;4.38;2.33;;;;;;;11.94;76.94;101055.75;5000392;28;20467;-53